Terminal Aerodrome Forecast
Issued by NWS Louisville, KY

Home | Current Version | Previous Version | Text Only | Print | Product List | Glossary On
Versions: 1 2 3 4 5 6 7 8 9 10 11 12
000
FTUS43 KLMK 250534
TAFLEX
TAF
KLEX 250534Z 2506/2606 19009KT P6SM BKN250 WS020/22045KT
     FM251200 23008KT P6SM BKN200
     FM251500 26012KT P6SM BKN200
     FM251800 30010KT P6SM FEW050 SCT250
     FM260000 30007KT P6SM SKC=

USA.gov is the U.S. government's official web portal to all federal, state and local government web resources and services.